logo
Search for airport 
image banner adimage banner adimage banner ad
image banner ad

LOAS - Spitzerberg

Located in District Bruck An Der Leitha, Austria

ICAO - LOAS, IATA -

Data provided by Airmate  

General information

Coordinates: N48°6'6" E16°56'2"
Elevation is 623 feet MSL.
 
View others Airports in Lower Austria

Operational data

Special qualification required
Current time UTC:
Current local time:
Weather at : LZIB - Bratislava/M. R. Stefanik ( 22 km )
METAR: LZIB 270100Z VRB01KT 9999 SCT046 06/02 Q1009 NOSIG
TAF: TAF LZIB 262315Z 2700/2800 05005KT CAVOK TEMPO 2703/2708 1500 BR BCFG BKN003 BECMG 2709/2711 15011KT BECMG 2722/2800 VRB02KT
View NOTAMs / SUP AIP / TFR affecting this airport [VIEW]
Communications frequencies: [VIEW]

Runways:

RWY identifierQFULength (ft)Width (ft)SurfaceLDA (ft)
15229782GRASS
33229782GRASS

Airport contact information

Address: District Bruck An Der Leitha Austria

Other aviation service providers

Aviation club (not for profit)

Flugsportzentrum Spitzerberg

Flugsportzentrum Spitzerberg

Österreichischer Aero Club-Flugsportzentrum

Österreichischer Aero Club-Flugsportzentrum

Satellite view of LOAS